sensor_id;sensor_type;location;lat;lon;timestamp;pressure;altitude;pressure_sealevel;temperature;humidity
47080;BME280;33067;49.296;14.470;2024-01-16T00:01:56;95733.69;;;-0.24;42.95
47080;BME280;33067;49.296;14.470;2024-01-16T00:04:21;95741.62;;;-1.07;44.67
47080;BME280;33067;49.296;14.470;2024-01-16T00:06:47;95735.40;;;-0.97;45.22
47080;BME280;33067;49.296;14.470;2024-01-16T00:09:13;95737.92;;;-1.01;44.30
47080;BME280;33067;49.296;14.470;2024-01-16T00:11:40;95760.94;;;-0.77;44.53
47080;BME280;33067;49.296;14.470;2024-01-16T00:14:04;95756.99;;;0.18;43.59
47080;BME280;33067;49.296;14.470;2024-01-16T00:16:30;95773.19;;;-0.78;44.98
47080;BME280;33067;49.296;14.470;2024-01-16T00:18:55;95777.48;;;-1.20;45.87
47080;BME280;33067;49.296;14.470;2024-01-16T00:21:24;95771.64;;;-0.59;44.96
47080;BME280;33067;49.296;14.470;2024-01-16T00:23:46;95779.26;;;-0.79;45.13
47080;BME280;33067;49.296;14.470;2024-01-16T00:26:20;95781.16;;;0.67;43.17
47080;BME280;33067;49.296;14.470;2024-01-16T00:28:37;95783.23;;;-0.46;44.81
47080;BME280;33067;49.296;14.470;2024-01-16T00:31:07;95794.19;;;-0.53;44.74
47080;BME280;33067;49.296;14.470;2024-01-16T00:33:29;95787.59;;;-0.28;43.94
47080;BME280;33067;49.296;14.470;2024-01-16T00:35:54;95806.14;;;0.63;42.88
47080;BME280;33067;49.296;14.470;2024-01-16T00:38:20;95800.52;;;0.98;42.14
47080;BME280;33067;49.296;14.470;2024-01-16T00:40:46;95808.79;;;0.48;42.43
47080;BME280;33067;49.296;14.470;2024-01-16T00:43:11;95816.35;;;1.16;41.52
47080;BME280;33067;49.296;14.470;2024-01-16T00:45:37;95818.03;;;0.83;41.46
47080;BME280;33067;49.296;14.470;2024-01-16T00:48:03;95818.68;;;0.89;41.55
47080;BME280;33067;49.296;14.470;2024-01-16T00:50:28;95822.77;;;0.46;41.43
47080;BME280;33067;49.296;14.470;2024-01-16T00:52:54;95824.27;;;1.08;41.28
47080;BME280;33067;49.296;14.470;2024-01-16T00:55:19;95824.88;;;0.39;41.60
47080;BME280;33067;49.296;14.470;2024-01-16T00:57:45;95831.71;;;0.73;41.55
47080;BME280;33067;49.296;14.470;2024-01-16T01:00:12;95831.75;;;1.13;41.07
47080;BME280;33067;49.296;14.470;2024-01-16T01:02:38;95842.60;;;-0.10;42.60
47080;BME280;33067;49.296;14.470;2024-01-16T01:05:02;95849.62;;;0.17;42.48
47080;BME280;33067;49.296;14.470;2024-01-16T01:07:28;95852.41;;;0.33;41.96
47080;BME280;33067;49.296;14.470;2024-01-16T01:09:54;95851.03;;;-0.20;43.07
47080;BME280;33067;49.296;14.470;2024-01-16T01:12:19;95857.55;;;-0.23;44.78
47080;BME280;33067;49.296;14.470;2024-01-16T01:14:44;95855.64;;;-0.84;45.45
47080;BME280;33067;49.296;14.470;2024-01-16T01:17:10;95851.88;;;-0.19;44.49
47080;BME280;33067;49.296;14.470;2024-01-16T01:19:36;95852.03;;;0.16;44.31
47080;BME280;33067;49.296;14.470;2024-01-16T01:22:02;95859.03;;;0.26;43.51
47080;BME280;33067;49.296;14.470;2024-01-16T01:24:27;95866.75;;;-0.10;43.88
47080;BME280;33067;49.296;14.470;2024-01-16T01:26:53;95862.80;;;-0.04;43.47
47080;BME280;33067;49.296;14.470;2024-01-16T01:29:19;95862.95;;;-0.11;43.15
47080;BME280;33067;49.296;14.470;2024-01-16T01:31:46;95866.57;;;0.73;41.12
47080;BME280;33067;49.296;14.470;2024-01-16T01:34:10;95859.62;;;1.06;40.52
47080;BME280;33067;49.296;14.470;2024-01-16T01:36:36;95865.17;;;0.75;40.51
47080;BME280;33067;49.296;14.470;2024-01-16T01:39:02;95871.49;;;0.14;41.34
47080;BME280;33067;49.296;14.470;2024-01-16T01:41:28;95872.93;;;0.43;40.98
47080;BME280;33067;49.296;14.470;2024-01-16T01:43:53;95871.89;;;0.05;41.72
47080;BME280;33067;49.296;14.470;2024-01-16T01:46:19;95875.70;;;0.05;41.51
47080;BME280;33067;49.296;14.470;2024-01-16T01:48:47;95878.05;;;0.10;41.44
47080;BME280;33067;49.296;14.470;2024-01-16T01:51:12;95875.86;;;0.03;41.49
47080;BME280;33067;49.296;14.470;2024-01-16T01:53:38;95882.39;;;0.69;40.70
47080;BME280;33067;49.296;14.470;2024-01-16T01:56:04;95882.88;;;0.91;40.23
47080;BME280;33067;49.296;14.470;2024-01-16T01:58:29;95882.36;;;1.57;38.91
47080;BME280;33067;49.296;14.470;2024-01-16T02:00:54;95883.51;;;1.36;38.64
47080;BME280;33067;49.296;14.470;2024-01-16T02:03:20;95889.67;;;1.63;38.24
47080;BME280;33067;49.296;14.470;2024-01-16T02:05:46;95893.51;;;0.90;38.87
47080;BME280;33067;49.296;14.470;2024-01-16T02:08:12;95894.10;;;0.60;39.55
47080;BME280;33067;49.296;14.470;2024-01-16T02:10:39;95897.42;;;0.61;39.31
47080;BME280;33067;49.296;14.470;2024-01-16T02:13:03;95892.13;;;0.99;38.51
47080;BME280;33067;49.296;14.470;2024-01-16T02:15:28;95893.85;;;1.22;38.06
47080;BME280;33067;49.296;14.470;2024-01-16T02:17:54;95906.25;;;1.87;37.34
47080;BME280;33067;49.296;14.470;2024-01-16T02:20:20;95911.03;;;1.90;37.33
47080;BME280;33067;49.296;14.470;2024-01-16T02:22:47;95911.06;;;1.79;36.73
47080;BME280;33067;49.296;14.470;2024-01-16T02:25:11;95914.22;;;1.47;37.36
47080;BME280;33067;49.296;14.470;2024-01-16T02:27:37;95917.52;;;1.76;37.21
47080;BME280;33067;49.296;14.470;2024-01-16T02:30:03;95917.48;;;0.63;38.71
47080;BME280;33067;49.296;14.470;2024-01-16T02:32:28;95920.81;;;1.21;37.76
47080;BME280;33067;49.296;14.470;2024-01-16T02:34:54;95918.67;;;0.56;38.67
47080;BME280;33067;49.296;14.470;2024-01-16T02:37:25;95924.40;;;0.78;38.59
47080;BME280;33067;49.296;14.470;2024-01-16T02:39:46;95920.78;;;1.15;37.81
47080;BME280;33067;49.296;14.470;2024-01-16T02:42:11;95923.11;;;0.53;38.55
47080;BME280;33067;49.296;14.470;2024-01-16T02:44:40;95929.43;;;1.01;38.62
47080;BME280;33067;49.296;14.470;2024-01-16T02:47:03;95927.51;;;1.16;38.53
47080;BME280;33067;49.296;14.470;2024-01-16T02:49:29;95929.24;;;0.88;38.65
47080;BME280;33067;49.296;14.470;2024-01-16T02:51:54;95933.18;;;1.24;38.05
47080;BME280;33067;49.296;14.470;2024-01-16T02:54:20;95936.44;;;1.08;38.93
47080;BME280;33067;49.296;14.470;2024-01-16T02:56:45;95937.44;;;0.04;40.02
47080;BME280;33067;49.296;14.470;2024-01-16T02:59:11;95948.75;;;0.97;38.73
47080;BME280;33067;49.296;14.470;2024-01-16T03:01:40;95952.37;;;0.00;40.30
47080;BME280;33067;49.296;14.470;2024-01-16T03:04:02;95949.73;;;1.50;37.93
47080;BME280;33067;49.296;14.470;2024-01-16T03:06:28;95946.68;;;0.72;39.02
47080;BME280;33067;49.296;14.470;2024-01-16T03:08:54;95952.40;;;1.60;38.13
47080;BME280;33067;49.296;14.470;2024-01-16T03:13:01;95949.06;;;2.31;36.70
47080;BME280;33067;49.296;14.470;2024-01-16T03:15:26;95961.50;;;1.89;37.66
47080;BME280;33067;49.296;14.470;2024-01-16T03:17:52;95969.87;;;1.69;38.82
47080;BME280;33067;49.296;14.470;2024-01-16T03:20:20;95977.20;;;1.92;38.57
47080;BME280;33067;49.296;14.470;2024-01-16T03:22:43;95976.63;;;1.72;38.98
47080;BME280;33067;49.296;14.470;2024-01-16T03:25:09;95988.63;;;1.53;39.35
47080;BME280;33067;49.296;14.470;2024-01-16T03:27:35;95989.04;;;1.61;39.31
47080;BME280;33067;49.296;14.470;2024-01-16T03:30:01;95997.38;;;1.77;39.16
47080;BME280;33067;49.296;14.470;2024-01-16T03:32:26;95993.35;;;1.50;39.25
47080;BME280;33067;49.296;14.470;2024-01-16T03:34:52;95997.83;;;0.99;40.25
47080;BME280;33067;49.296;14.470;2024-01-16T03:37:17;95994.50;;;1.32;39.78
47080;BME280;33067;49.296;14.470;2024-01-16T03:39:43;95991.88;;;1.38;39.80
47080;BME280;33067;49.296;14.470;2024-01-16T03:42:09;95997.29;;;1.34;40.88
47080;BME280;33067;49.296;14.470;2024-01-16T03:44:39;95999.49;;;0.17;42.67
47080;BME280;33067;49.296;14.470;2024-01-16T03:47:00;96001.56;;;0.94;41.75
47080;BME280;33067;49.296;14.470;2024-01-16T03:49:26;95995.78;;;1.02;40.92
47080;BME280;33067;49.296;14.470;2024-01-16T03:51:52;96003.65;;;0.68;41.45
47080;BME280;33067;49.296;14.470;2024-01-16T03:54:18;96006.39;;;0.11;42.20
47080;BME280;33067;49.296;14.470;2024-01-16T03:56:43;96010.83;;;0.70;41.27
47080;BME280;33067;49.296;14.470;2024-01-16T03:59:08;96009.98;;;1.69;40.49
47080;BME280;33067;49.296;14.470;2024-01-16T04:01:34;96016.65;;;0.61;41.97
47080;BME280;33067;49.296;14.470;2024-01-16T04:04:00;96017.83;;;0.41;41.90
47080;BME280;33067;49.296;14.470;2024-01-16T04:06:25;96017.56;;;0.91;41.36
47080;BME280;33067;49.296;14.470;2024-01-16T04:08:51;96023.35;;;0.64;42.13
47080;BME280;33067;49.296;14.470;2024-01-16T04:11:17;96020.74;;;1.24;41.15
47080;BME280;33067;49.296;14.470;2024-01-16T04:13:43;96021.25;;;1.10;41.26
47080;BME280;33067;49.296;14.470;2024-01-16T04:16:08;96022.89;;;1.30;40.81
47080;BME280;33067;49.296;14.470;2024-01-16T04:18:36;96024.58;;;1.26;40.46
47080;BME280;33067;49.296;14.470;2024-01-16T04:21:00;96029.17;;;1.19;40.49
47080;BME280;33067;49.296;14.470;2024-01-16T04:23:25;96026.90;;;1.18;40.62
47080;BME280;33067;49.296;14.470;2024-01-16T04:25:51;96025.87;;;1.94;39.51
47080;BME280;33067;49.296;14.470;2024-01-16T04:28:17;96034.88;;;1.99;39.37
47080;BME280;33067;49.296;14.470;2024-01-16T04:30:42;96041.95;;;2.08;39.30
47080;BME280;33067;49.296;14.470;2024-01-16T04:33:07;96048.36;;;2.32;38.75
47080;BME280;33067;49.296;14.470;2024-01-16T04:35:33;96050.48;;;2.14;38.71
47080;BME280;33067;49.296;14.470;2024-01-16T04:37:59;96054.19;;;1.70;39.14
47080;BME280;33067;49.296;14.470;2024-01-16T04:40:24;96056.33;;;1.61;39.28
47080;BME280;33067;49.296;14.470;2024-01-16T04:42:50;96049.51;;;1.89;38.95
47080;BME280;33067;49.296;14.470;2024-01-16T04:45:16;96053.01;;;1.95;38.77
47080;BME280;33067;49.296;14.470;2024-01-16T04:47:42;96048.61;;;2.05;38.52
47080;BME280;33067;49.296;14.470;2024-01-16T04:50:08;96049.25;;;1.94;38.73
47080;BME280;33067;49.296;14.470;2024-01-16T04:52:33;96053.38;;;1.52;38.87
47080;BME280;33067;49.296;14.470;2024-01-16T04:54:59;96052.30;;;2.32;37.97
47080;BME280;33067;49.296;14.470;2024-01-16T04:57:24;96056.81;;;1.92;38.61
47080;BME280;33067;49.296;14.470;2024-01-16T04:59:52;96059.01;;;1.56;38.67
47080;BME280;33067;49.296;14.470;2024-01-16T05:02:16;96064.24;;;1.57;39.06
47080;BME280;33067;49.296;14.470;2024-01-16T05:04:42;96058.60;;;1.74;38.55
47080;BME280;33067;49.296;14.470;2024-01-16T05:07:07;96059.53;;;2.08;38.25
47080;BME280;33067;49.296;14.470;2024-01-16T05:09:33;96064.01;;;2.13;38.02
47080;BME280;33067;49.296;14.470;2024-01-16T05:11:59;96063.99;;;2.15;38.08
47080;BME280;33067;49.296;14.470;2024-01-16T05:14:24;96065.56;;;1.67;38.63
47080;BME280;33067;49.296;14.470;2024-01-16T05:16:50;96068.49;;;1.96;38.12
47080;BME280;33067;49.296;14.470;2024-01-16T05:19:16;96067.06;;;2.37;37.61
47080;BME280;33067;49.296;14.470;2024-01-16T05:21:41;96067.28;;;1.64;38.04
47080;BME280;33067;49.296;14.470;2024-01-16T05:24:08;96074.06;;;0.96;39.08
47080;BME280;33067;49.296;14.470;2024-01-16T05:26:33;96074.84;;;1.31;38.54
47080;BME280;33067;49.296;14.470;2024-01-16T05:28:59;96072.79;;;1.82;37.84
47080;BME280;33067;49.296;14.470;2024-01-16T05:31:24;96065.71;;;1.13;38.61
47080;BME280;33067;49.296;14.470;2024-01-16T05:33:50;96075.19;;;1.66;37.66
47080;BME280;33067;49.296;14.470;2024-01-16T05:36:16;96075.64;;;1.61;37.35
47080;BME280;33067;49.296;14.470;2024-01-16T05:38:41;96082.50;;;1.51;37.71
47080;BME280;33067;49.296;14.470;2024-01-16T05:41:07;96091.41;;;1.63;37.58
47080;BME280;33067;49.296;14.470;2024-01-16T05:43:33;96086.32;;;1.77;37.12
47080;BME280;33067;49.296;14.470;2024-01-16T05:45:59;96091.57;;;2.18;36.83
47080;BME280;33067;49.296;14.470;2024-01-16T05:48:24;96083.83;;;1.84;37.05
47080;BME280;33067;49.296;14.470;2024-01-16T05:50:53;96100.91;;;1.08;38.43
47080;BME280;33067;49.296;14.470;2024-01-16T05:53:16;96098.58;;;1.45;38.17
47080;BME280;33067;49.296;14.470;2024-01-16T05:55:42;96098.49;;;2.00;37.25
47080;BME280;33067;49.296;14.470;2024-01-16T05:58:10;96098.98;;;1.31;37.71
47080;BME280;33067;49.296;14.470;2024-01-16T06:00:33;96093.55;;;1.66;37.70
47080;BME280;33067;49.296;14.470;2024-01-16T06:02:59;96097.33;;;1.53;37.80
47080;BME280;33067;49.296;14.470;2024-01-16T06:05:24;96093.45;;;1.80;37.27
47080;BME280;33067;49.296;14.470;2024-01-16T06:07:50;96087.85;;;1.60;37.40
47080;BME280;33067;49.296;14.470;2024-01-16T06:10:16;96097.03;;;1.57;37.44
47080;BME280;33067;49.296;14.470;2024-01-16T06:12:42;96097.58;;;1.63;37.28
47080;BME280;33067;49.296;14.470;2024-01-16T06:15:08;96101.13;;;0.64;38.56
47080;BME280;33067;49.296;14.470;2024-01-16T06:17:33;96105.56;;;1.51;37.89
47080;BME280;33067;49.296;14.470;2024-01-16T06:19:59;96112.76;;;0.61;38.56
47080;BME280;33067;49.296;14.470;2024-01-16T06:22:24;96115.68;;;1.58;37.47
47080;BME280;33067;49.296;14.470;2024-01-16T06:24:50;96119.18;;;2.09;36.83
47080;BME280;33067;49.296;14.470;2024-01-16T06:27:16;96122.25;;;1.14;37.94
47080;BME280;33067;49.296;14.470;2024-01-16T06:29:42;96126.40;;;1.35;37.64
47080;BME280;33067;49.296;14.470;2024-01-16T06:32:07;96123.17;;;1.87;37.04
47080;BME280;33067;49.296;14.470;2024-01-16T06:34:33;96121.05;;;2.05;36.30
47080;BME280;33067;49.296;14.470;2024-01-16T06:36:58;96120.38;;;1.88;36.70
47080;BME280;33067;49.296;14.470;2024-01-16T06:39:24;96120.93;;;1.13;37.10
47080;BME280;33067;49.296;14.470;2024-01-16T06:41:50;96126.56;;;2.01;36.60
47080;BME280;33067;49.296;14.470;2024-01-16T06:44:16;96129.97;;;1.71;36.64
47080;BME280;33067;49.296;14.470;2024-01-16T06:46:41;96137.97;;;2.14;36.23
47080;BME280;33067;49.296;14.470;2024-01-16T06:49:07;96136.85;;;2.44;35.89
47080;BME280;33067;49.296;14.470;2024-01-16T06:51:33;96137.15;;;1.77;36.42
47080;BME280;33067;49.296;14.470;2024-01-16T06:53:58;96141.09;;;1.86;36.01
47080;BME280;33067;49.296;14.470;2024-01-16T06:56:25;96144.68;;;1.01;35.82
47080;BME280;33067;49.296;14.470;2024-01-16T06:58:50;96152.37;;;1.78;36.05
47080;BME280;33067;49.296;14.470;2024-01-16T07:01:16;96158.59;;;2.57;35.22
47080;BME280;33067;49.296;14.470;2024-01-16T07:03:41;96162.58;;;2.20;35.40
47080;BME280;33067;49.296;14.470;2024-01-16T07:06:07;96162.87;;;2.22;35.18
47080;BME280;33067;49.296;14.470;2024-01-16T07:08:33;96166.87;;;2.44;35.36
47080;BME280;33067;49.296;14.470;2024-01-16T07:10:58;96169.40;;;2.72;34.86
47080;BME280;33067;49.296;14.470;2024-01-16T07:13:24;96175.54;;;2.63;34.69
47080;BME280;33067;49.296;14.470;2024-01-16T07:15:50;96178.42;;;2.28;35.32
47080;BME280;33067;49.296;14.470;2024-01-16T07:18:16;96174.03;;;2.09;34.98
47080;BME280;33067;49.296;14.470;2024-01-16T07:20:41;96177.29;;;1.62;35.28
47080;BME280;33067;49.296;14.470;2024-01-16T07:23:07;96187.25;;;2.27;34.93
47080;BME280;33067;49.296;14.470;2024-01-16T07:25:33;96191.19;;;2.46;34.78
47080;BME280;33067;49.296;14.470;2024-01-16T07:27:59;96196.40;;;1.98;35.41
47080;BME280;33067;49.296;14.470;2024-01-16T07:30:24;96197.85;;;1.89;35.52
47080;BME280;33067;49.296;14.470;2024-01-16T07:32:50;96205.86;;;1.63;36.39
47080;BME280;33067;49.296;14.470;2024-01-16T07:35:16;96211.04;;;2.22;35.80
47080;BME280;33067;49.296;14.470;2024-01-16T07:37:42;96214.54;;;2.77;35.46
47080;BME280;33067;49.296;14.470;2024-01-16T07:40:08;96205.43;;;2.68;35.12
47080;BME280;33067;49.296;14.470;2024-01-16T07:42:33;96212.00;;;2.69;35.48
47080;BME280;33067;49.296;14.470;2024-01-16T07:44:58;96199.98;;;2.89;35.12
47080;BME280;33067;49.296;14.470;2024-01-16T07:47:24;96210.46;;;2.25;35.05
47080;BME280;33067;49.296;14.470;2024-01-16T07:49:49;96213.90;;;1.45;36.08
47080;BME280;33067;49.296;14.470;2024-01-16T07:52:15;96216.46;;;2.42;35.10
47080;BME280;33067;49.296;14.470;2024-01-16T07:54:41;96216.28;;;3.06;34.73
47080;BME280;33067;49.296;14.470;2024-01-16T07:57:06;96214.41;;;2.17;35.54
47080;BME280;33067;49.296;14.470;2024-01-16T07:59:32;96221.18;;;1.26;36.16
47080;BME280;33067;49.296;14.470;2024-01-16T08:01:58;96215.84;;;2.06;35.79
47080;BME280;33067;49.296;14.470;2024-01-16T08:04:23;96222.68;;;2.05;35.87
47080;BME280;33067;49.296;14.470;2024-01-16T08:06:49;96223.91;;;1.70;36.08
47080;BME280;33067;49.296;14.470;2024-01-16T08:09:15;96220.69;;;1.91;35.80
47080;BME280;33067;49.296;14.470;2024-01-16T08:11:41;96221.40;;;3.04;34.80
47080;BME280;33067;49.296;14.470;2024-01-16T08:14:06;96224.90;;;1.67;35.65
47080;BME280;33067;49.296;14.470;2024-01-16T08:16:32;96234.07;;;1.86;36.12
47080;BME280;33067;49.296;14.470;2024-01-16T08:18:58;96231.84;;;2.25;35.17
47080;BME280;33067;49.296;14.470;2024-01-16T08:21:24;96232.86;;;2.22;35.53
47080;BME280;33067;49.296;14.470;2024-01-16T08:23:49;96237.12;;;0.78;37.50
47080;BME280;33067;49.296;14.470;2024-01-16T08:26:15;96242.15;;;1.22;37.07
47080;BME280;33067;49.296;14.470;2024-01-16T08:28:41;96247.22;;;1.15;37.32
47080;BME280;33067;49.296;14.470;2024-01-16T08:31:07;96248.32;;;1.10;37.46
47080;BME280;33067;49.296;14.470;2024-01-16T08:33:32;96252.10;;;1.15;37.63
47080;BME280;33067;49.296;14.470;2024-01-16T08:35:58;96250.59;;;1.62;37.19
47080;BME280;33067;49.296;14.470;2024-01-16T08:38:24;96253.87;;;0.76;37.74
47080;BME280;33067;49.296;14.470;2024-01-16T08:40:49;96254.26;;;1.33;37.43
47080;BME280;33067;49.296;14.470;2024-01-16T08:43:15;96257.65;;;1.30;37.65
47080;BME280;33067;49.296;14.470;2024-01-16T08:45:40;96264.33;;;0.95;38.23
47080;BME280;33067;49.296;14.470;2024-01-16T08:48:06;96258.89;;;0.69;38.62
47080;BME280;33067;49.296;14.470;2024-01-16T08:50:32;96262.74;;;2.25;36.66
47080;BME280;33067;49.296;14.470;2024-01-16T08:52:57;96265.09;;;1.77;37.32
47080;BME280;33067;49.296;14.470;2024-01-16T08:55:23;96261.03;;;1.61;37.31
47080;BME280;33067;49.296;14.470;2024-01-16T08:57:48;96270.00;;;1.69;37.36
47080;BME280;33067;49.296;14.470;2024-01-16T09:00:15;96272.02;;;2.09;36.84
47080;BME280;33067;49.296;14.470;2024-01-16T09:02:40;96272.86;;;1.41;37.70
47080;BME280;33067;49.296;14.470;2024-01-16T09:05:07;96272.43;;;1.80;37.12
47080;BME280;33067;49.296;14.470;2024-01-16T09:07:31;96277.60;;;1.85;36.82
47080;BME280;33067;49.296;14.470;2024-01-16T09:09:57;96272.21;;;2.17;35.92
47080;BME280;33067;49.296;14.470;2024-01-16T09:12:22;96273.76;;;2.87;35.63
47080;BME280;33067;49.296;14.470;2024-01-16T09:14:48;96276.35;;;1.91;36.24
47080;BME280;33067;49.296;14.470;2024-01-16T09:17:14;96279.30;;;2.32;36.54
47080;BME280;33067;49.296;14.470;2024-01-16T09:19:40;96278.12;;;2.33;35.96
47080;BME280;33067;49.296;14.470;2024-01-16T09:22:05;96279.11;;;2.12;36.09
47080;BME280;33067;49.296;14.470;2024-01-16T09:24:31;96278.66;;;2.62;35.52
47080;BME280;33067;49.296;14.470;2024-01-16T09:26:57;96279.81;;;2.90;35.83
47080;BME280;33067;49.296;14.470;2024-01-16T09:29:22;96279.72;;;2.55;35.70
47080;BME280;33067;49.296;14.470;2024-01-16T09:31:48;96276.64;;;2.56;35.29
47080;BME280;33067;49.296;14.470;2024-01-16T09:34:13;96274.40;;;2.09;36.05
47080;BME280;33067;49.296;14.470;2024-01-16T09:36:39;96273.02;;;2.60;35.44
47080;BME280;33067;49.296;14.470;2024-01-16T09:39:06;96275.69;;;2.65;35.41
47080;BME280;33067;49.296;14.470;2024-01-16T09:41:30;96274.57;;;2.74;35.26
47080;BME280;33067;49.296;14.470;2024-01-16T09:43:56;96273.63;;;2.81;34.95
47080;BME280;33067;49.296;14.470;2024-01-16T09:46:23;96271.64;;;3.06;34.76
47080;BME280;33067;49.296;14.470;2024-01-16T09:48:50;96271.80;;;3.04;34.81
47080;BME280;33067;49.296;14.470;2024-01-16T09:51:12;96273.32;;;2.90;34.65
47080;BME280;33067;49.296;14.470;2024-01-16T09:53:37;96272.80;;;3.40;34.56
47080;BME280;33067;49.296;14.470;2024-01-16T09:56:06;96270.84;;;3.52;34.22
47080;BME280;33067;49.296;14.470;2024-01-16T09:58:28;96267.16;;;3.48;34.24
47080;BME280;33067;49.296;14.470;2024-01-16T10:00:53;96266.76;;;2.62;35.00
47080;BME280;33067;49.296;14.470;2024-01-16T10:03:19;96260.10;;;2.99;34.46
47080;BME280;33067;49.296;14.470;2024-01-16T10:05:45;96257.69;;;2.82;34.73
47080;BME280;33067;49.296;14.470;2024-01-16T10:08:10;96257.96;;;3.36;34.18
47080;BME280;33067;49.296;14.470;2024-01-16T10:10:36;96253.96;;;3.60;33.86
47080;BME280;33067;49.296;14.470;2024-01-16T10:13:01;96255.55;;;3.62;33.70
47080;BME280;33067;49.296;14.470;2024-01-16T10:15:27;96257.86;;;3.37;34.17
47080;BME280;33067;49.296;14.470;2024-01-16T10:17:53;96256.20;;;3.48;34.39
47080;BME280;33067;49.296;14.470;2024-01-16T10:22:52;96257.34;;;3.14;34.03
47080;BME280;33067;49.296;14.470;2024-01-16T10:25:11;96256.12;;;3.19;34.08
47080;BME280;33067;49.296;14.470;2024-01-16T10:27:36;96257.77;;;3.30;34.26
47080;BME280;33067;49.296;14.470;2024-01-16T10:30:01;96261.12;;;3.70;33.61
47080;BME280;33067;49.296;14.470;2024-01-16T10:32:28;96262.55;;;3.74;33.53
47080;BME280;33067;49.296;14.470;2024-01-16T10:35:01;96263.45;;;2.85;34.03
47080;BME280;33067;49.296;14.470;2024-01-16T10:37:19;96261.93;;;3.40;33.93
47080;BME280;33067;49.296;14.470;2024-01-16T10:39:49;96263.34;;;3.71;33.44
47080;BME280;33067;49.296;14.470;2024-01-16T10:42:09;96263.26;;;3.91;33.25
47080;BME280;33067;49.296;14.470;2024-01-16T10:44:35;96259.03;;;3.59;34.10
47080;BME280;33067;49.296;14.470;2024-01-16T10:47:11;96257.55;;;2.89;34.38
47080;BME280;33067;49.296;14.470;2024-01-16T10:49:26;96258.37;;;3.54;34.28
47080;BME280;33067;49.296;14.470;2024-01-16T10:51:52;96259.25;;;3.54;34.52
47080;BME280;33067;49.296;14.470;2024-01-16T10:54:18;96256.70;;;3.12;35.46
47080;BME280;33067;49.296;14.470;2024-01-16T10:56:45;96257.38;;;3.23;35.47
47080;BME280;33067;49.296;14.470;2024-01-16T10:59:16;96258.16;;;2.98;35.89
47080;BME280;33067;49.296;14.470;2024-01-16T11:01:35;96250.18;;;3.17;35.54
47080;BME280;33067;49.296;14.470;2024-01-16T11:04:01;96244.75;;;2.96;35.63
47080;BME280;33067;49.296;14.470;2024-01-16T11:06:27;96236.76;;;3.07;35.39
47080;BME280;33067;49.296;14.470;2024-01-16T11:08:52;96231.89;;;2.82;35.83
47080;BME280;33067;49.296;14.470;2024-01-16T11:11:19;96222.15;;;2.51;35.87
47080;BME280;33067;49.296;14.470;2024-01-16T11:13:43;96219.52;;;2.62;35.55
47080;BME280;33067;49.296;14.470;2024-01-16T11:16:10;96224.16;;;2.63;35.97
47080;BME280;33067;49.296;14.470;2024-01-16T11:18:34;96223.95;;;3.51;35.19
47080;BME280;33067;49.296;14.470;2024-01-16T11:21:00;96220.37;;;3.04;35.24
47080;BME280;33067;49.296;14.470;2024-01-16T11:23:24;96225.86;;;3.57;34.76
47080;BME280;33067;49.296;14.470;2024-01-16T11:25:50;96223.72;;;3.29;34.87
47080;BME280;33067;49.296;14.470;2024-01-16T11:28:15;96227.55;;;3.29;34.59
47080;BME280;33067;49.296;14.470;2024-01-16T11:30:42;96225.93;;;3.42;34.77
47080;BME280;33067;49.296;14.470;2024-01-16T11:35:33;96222.02;;;3.76;33.39
47080;BME280;33067;49.296;14.470;2024-01-16T11:38:03;96224.14;;;3.48;34.04
47080;BME280;33067;49.296;14.470;2024-01-16T11:40:25;96222.77;;;3.57;33.61
47080;BME280;33067;49.296;14.470;2024-01-16T11:42:52;96221.70;;;3.52;33.79
47080;BME280;33067;49.296;14.470;2024-01-16T11:47:40;96217.37;;;3.33;33.31
47080;BME280;33067;49.296;14.470;2024-01-16T11:50:09;96215.86;;;3.97;32.83
47080;BME280;33067;49.296;14.470;2024-01-16T11:52:41;96217.72;;;2.24;34.35
47080;BME280;33067;49.296;14.470;2024-01-16T11:54:57;96206.17;;;3.07;33.59
47080;BME280;33067;49.296;14.470;2024-01-16T11:57:41;96212.77;;;2.70;34.20
47080;BME280;33067;49.296;14.470;2024-01-16T11:59:59;96208.57;;;3.28;33.24
47080;BME280;33067;49.296;14.470;2024-01-16T12:02:21;96211.02;;;3.13;33.46
47080;BME280;33067;49.296;14.470;2024-01-16T12:04:40;96211.14;;;2.54;33.52
47080;BME280;33067;49.296;14.470;2024-01-16T12:07:06;96217.97;;;2.05;34.37
47080;BME280;33067;49.296;14.470;2024-01-16T12:09:31;96212.14;;;2.24;34.49
47080;BME280;33067;49.296;14.470;2024-01-16T12:11:59;96212.16;;;2.15;34.43
47080;BME280;33067;49.296;14.470;2024-01-16T12:14:22;96208.94;;;2.44;34.40
47080;BME280;33067;49.296;14.470;2024-01-16T12:16:48;96216.76;;;2.74;33.82
47080;BME280;33067;49.296;14.470;2024-01-16T12:19:15;96212.72;;;2.21;34.64
47080;BME280;33067;49.296;14.470;2024-01-16T12:21:39;96218.62;;;2.05;35.43
47080;BME280;33067;49.296;14.470;2024-01-16T12:24:05;96219.84;;;2.14;35.01
47080;BME280;33067;49.296;14.470;2024-01-16T12:26:30;96213.95;;;2.80;34.46
47080;BME280;33067;49.296;14.470;2024-01-16T12:28:55;96216.16;;;2.34;34.39
47080;BME280;33067;49.296;14.470;2024-01-16T12:31:21;96221.42;;;2.23;34.55
47080;BME280;33067;49.296;14.470;2024-01-16T12:33:46;96222.73;;;2.75;34.13
47080;BME280;33067;49.296;14.470;2024-01-16T12:36:12;96222.02;;;3.61;33.73
47080;BME280;33067;49.296;14.470;2024-01-16T12:38:38;96223.96;;;3.39;33.65
47080;BME280;33067;49.296;14.470;2024-01-16T12:41:06;96226.06;;;3.22;33.44
47080;BME280;33067;49.296;14.470;2024-01-16T12:43:29;96220.20;;;3.07;33.80
47080;BME280;33067;49.296;14.470;2024-01-16T12:45:55;96225.24;;;3.46;33.19
47080;BME280;33067;49.296;14.470;2024-01-16T12:48:25;96226.65;;;4.07;32.95
47080;BME280;33067;49.296;14.470;2024-01-16T12:50:46;96226.05;;;3.67;32.92
47080;BME280;33067;49.296;14.470;2024-01-16T12:53:11;96226.94;;;4.14;32.97
47080;BME280;33067;49.296;14.470;2024-01-16T12:55:38;96225.67;;;3.30;33.70
47080;BME280;33067;49.296;14.470;2024-01-16T12:58:13;96226.42;;;3.78;33.19
47080;BME280;33067;49.296;14.470;2024-01-16T13:00:28;96228.66;;;3.37;33.85